Terminal Aerodrome Forecast
Issued by NWS

Home | Current Version | Previous Version | Text Only | Print | Product List | Glossary On
Versions: 1 2 3 4 5 6 7 8 9 10 11 12 13 14
000
FTUS43 KMQT 012338
TAFCMX
TAF
KCMX 012338Z 0200/0224 26010G19KT P6SM BKN120
     FM020100 25008KT P6SM BKN110
     FM020500 24006KT P6SM VCSH BKN080 WS010/26035KT
     FM020800 25004KT P6SM VCSH BKN080
     FM021300 28005KT P6SM -SHRA BKN050
     FM022000 28012KT P6SM BKN070=

USA.gov is the U.S. government's official web portal to all federal, state and local government web resources and services.